sensor_id;sensor_type;location;lat;lon;timestamp;pressure;altitude;pressure_sealevel;temperature;humidity
59757;BME280;45631;51.962;5.974;2022-07-18T00:01:24;102328.47;;;18.10;69.75
59757;BME280;45631;51.962;5.974;2022-07-18T00:03:52;102325.28;;;18.05;69.97
59757;BME280;45631;51.962;5.974;2022-07-18T00:06:20;102322.41;;;18.08;69.57
59757;BME280;45631;51.962;5.974;2022-07-18T00:08:48;102316.41;;;17.93;70.04
59757;BME280;45631;51.962;5.974;2022-07-18T00:11:16;102318.88;;;17.83;70.24
59757;BME280;45631;51.962;5.974;2022-07-18T00:13:44;102319.94;;;17.81;70.17
59757;BME280;45631;51.962;5.974;2022-07-18T00:16:13;102325.97;;;17.83;70.19
59757;BME280;45631;51.962;5.974;2022-07-18T00:18:42;102317.34;;;17.79;70.53
59757;BME280;45631;51.962;5.974;2022-07-18T00:21:10;102317.28;;;17.81;70.42
59757;BME280;45631;51.962;5.974;2022-07-18T00:23:38;102317.94;;;17.71;71.17
59757;BME280;45631;51.962;5.974;2022-07-18T00:26:06;102322.63;;;17.68;71.59
59757;BME280;45631;51.962;5.974;2022-07-18T00:28:34;102316.50;;;17.79;70.31
59757;BME280;45631;51.962;5.974;2022-07-18T00:31:03;102319.00;;;17.69;71.11
59757;BME280;45631;51.962;5.974;2022-07-18T00:33:31;102315.94;;;17.62;71.91
59757;BME280;45631;51.962;5.974;2022-07-18T00:36:00;102314.63;;;17.68;71.65
59757;BME280;45631;51.962;5.974;2022-07-18T00:38:28;102312.31;;;17.63;72.02
59757;BME280;45631;51.962;5.974;2022-07-18T00:40:56;102307.78;;;17.52;72.90
59757;BME280;45631;51.962;5.974;2022-07-18T00:43:25;102309.97;;;17.58;72.64
59757;BME280;45631;51.962;5.974;2022-07-18T00:45:53;102303.63;;;17.48;73.07
59757;BME280;45631;51.962;5.974;2022-07-18T00:48:21;102301.19;;;17.45;72.88
59757;BME280;45631;51.962;5.974;2022-07-18T00:50:50;102304.16;;;17.40;73.33
59757;BME280;45631;51.962;5.974;2022-07-18T00:53:19;102296.72;;;17.46;73.59
59757;BME280;45631;51.962;5.974;2022-07-18T00:55:47;102292.69;;;17.40;74.07
59757;BME280;45631;51.962;5.974;2022-07-18T00:58:15;102296.50;;;17.49;74.17
59757;BME280;45631;51.962;5.974;2022-07-18T01:00:43;102295.06;;;17.32;74.82
59757;BME280;45631;51.962;5.974;2022-07-18T01:03:29;102286.84;;;17.35;74.82
59757;BME280;45631;51.962;5.974;2022-07-18T01:05:57;102285.47;;;17.29;75.66
59757;BME280;45631;51.962;5.974;2022-07-18T01:08:27;102286.22;;;17.18;75.49
59757;BME280;45631;51.962;5.974;2022-07-18T01:10:56;102290.06;;;17.14;75.52
59757;BME280;45631;51.962;5.974;2022-07-18T01:13:24;102283.56;;;17.18;75.86
59757;BME280;45631;51.962;5.974;2022-07-18T01:15:52;102284.22;;;17.09;76.02
59757;BME280;45631;51.962;5.974;2022-07-18T01:18:20;102286.34;;;17.04;76.59
59757;BME280;45631;51.962;5.974;2022-07-18T01:20:50;102292.63;;;17.03;77.34
59757;BME280;45631;51.962;5.974;2022-07-18T01:23:18;102284.31;;;17.08;77.47
59757;BME280;45631;51.962;5.974;2022-07-18T01:25:46;102291.78;;;17.15;77.20
59757;BME280;45631;51.962;5.974;2022-07-18T01:28:14;102285.19;;;16.95;78.02
59757;BME280;45631;51.962;5.974;2022-07-18T01:30:43;102285.69;;;16.87;78.52
59757;BME280;45631;51.962;5.974;2022-07-18T01:33:11;102287.38;;;16.88;79.07
59757;BME280;45631;51.962;5.974;2022-07-18T01:35:39;102279.34;;;16.90;79.12
59757;BME280;45631;51.962;5.974;2022-07-18T01:38:08;102276.47;;;16.93;78.86
59757;BME280;45631;51.962;5.974;2022-07-18T01:40:36;102273.72;;;16.95;79.43
59757;BME280;45631;51.962;5.974;2022-07-18T01:43:04;102269.53;;;16.78;79.09
59757;BME280;45631;51.962;5.974;2022-07-18T01:45:34;102276.84;;;16.74;79.66
59757;BME280;45631;51.962;5.974;2022-07-18T01:48:02;102280.06;;;16.66;81.52
59757;BME280;45631;51.962;5.974;2022-07-18T01:50:30;102276.00;;;16.73;80.75
59757;BME280;45631;51.962;5.974;2022-07-18T01:52:58;102280.59;;;16.71;80.91
59757;BME280;45631;51.962;5.974;2022-07-18T01:55:28;102280.34;;;16.62;82.12
59757;BME280;45631;51.962;5.974;2022-07-18T01:57:56;102274.19;;;16.61;82.64
59757;BME280;45631;51.962;5.974;2022-07-18T02:00:24;102275.91;;;16.62;81.74
59757;BME280;45631;51.962;5.974;2022-07-18T02:02:52;102278.03;;;16.57;82.08
59757;BME280;45631;51.962;5.974;2022-07-18T02:05:20;102270.13;;;16.43;82.10
59757;BME280;45631;51.962;5.974;2022-07-18T02:07:48;102268.63;;;16.38;82.80
59757;BME280;45631;51.962;5.974;2022-07-18T02:10:18;102265.34;;;16.35;82.88
59757;BME280;45631;51.962;5.974;2022-07-18T02:12:48;102258.72;;;16.28;82.07
59757;BME280;45631;51.962;5.974;2022-07-18T02:15:16;102260.34;;;16.30;81.38
59757;BME280;45631;51.962;5.974;2022-07-18T02:17:44;102258.53;;;16.31;81.54
59757;BME280;45631;51.962;5.974;2022-07-18T02:20:13;102255.34;;;16.26;82.72
59757;BME280;45631;51.962;5.974;2022-07-18T02:22:42;102256.63;;;16.20;83.34
59757;BME280;45631;51.962;5.974;2022-07-18T02:25:11;102253.19;;;16.18;84.41
59757;BME280;45631;51.962;5.974;2022-07-18T02:27:39;102249.91;;;16.14;84.28
59757;BME280;45631;51.962;5.974;2022-07-18T02:30:10;102244.16;;;16.08;83.92
59757;BME280;45631;51.962;5.974;2022-07-18T02:32:38;102249.66;;;16.04;84.78
59757;BME280;45631;51.962;5.974;2022-07-18T02:35:08;102244.34;;;16.04;84.58
59757;BME280;45631;51.962;5.974;2022-07-18T02:37:37;102251.34;;;16.05;84.58
59757;BME280;45631;51.962;5.974;2022-07-18T02:40:08;102252.97;;;16.08;84.07
59757;BME280;45631;51.962;5.974;2022-07-18T02:42:39;102248.94;;;16.15;83.69
59757;BME280;45631;51.962;5.974;2022-07-18T02:45:10;102243.94;;;16.11;83.21
59757;BME280;45631;51.962;5.974;2022-07-18T02:47:38;102246.06;;;16.05;84.32
59757;BME280;45631;51.962;5.974;2022-07-18T02:50:07;102247.53;;;15.97;84.04
59757;BME280;45631;51.962;5.974;2022-07-18T02:52:36;102244.31;;;15.92;84.53
59757;BME280;45631;51.962;5.974;2022-07-18T02:55:05;102245.81;;;15.96;84.35
59757;BME280;45631;51.962;5.974;2022-07-18T02:57:35;102246.38;;;16.01;84.28
59757;BME280;45631;51.962;5.974;2022-07-18T03:00:06;102252.94;;;15.95;84.69
59757;BME280;45631;51.962;5.974;2022-07-18T03:02:37;102253.44;;;15.87;85.82
59757;BME280;45631;51.962;5.974;2022-07-18T03:05:06;102256.19;;;15.86;85.86
59757;BME280;45631;51.962;5.974;2022-07-18T03:07:34;102246.25;;;15.75;87.26
59757;BME280;45631;51.962;5.974;2022-07-18T03:10:03;102250.31;;;15.81;87.20
59757;BME280;45631;51.962;5.974;2022-07-18T03:12:32;102242.53;;;15.78;87.48
59757;BME280;45631;51.962;5.974;2022-07-18T03:15:00;102239.31;;;15.72;87.44
59757;BME280;45631;51.962;5.974;2022-07-18T03:17:28;102244.19;;;15.80;86.87
59757;BME280;45631;51.962;5.974;2022-07-18T03:19:58;102239.22;;;15.74;87.74
59757;BME280;45631;51.962;5.974;2022-07-18T03:22:26;102244.81;;;15.84;86.06
59757;BME280;45631;51.962;5.974;2022-07-18T03:24:54;102239.50;;;15.84;85.72
59757;BME280;45631;51.962;5.974;2022-07-18T03:27:22;102245.19;;;15.78;86.10
59757;BME280;45631;51.962;5.974;2022-07-18T03:29:50;102241.22;;;15.70;86.66
59757;BME280;45631;51.962;5.974;2022-07-18T03:32:18;102237.28;;;15.63;87.23
59757;BME280;45631;51.962;5.974;2022-07-18T03:34:46;102231.97;;;15.63;86.41
59757;BME280;45631;51.962;5.974;2022-07-18T03:37:15;102224.22;;;15.60;86.62
59757;BME280;45631;51.962;5.974;2022-07-18T03:39:43;102222.41;;;15.61;86.96
59757;BME280;45631;51.962;5.974;2022-07-18T03:42:12;102220.16;;;15.54;87.02
59757;BME280;45631;51.962;5.974;2022-07-18T03:44:40;102218.66;;;15.50;86.96
59757;BME280;45631;51.962;5.974;2022-07-18T03:47:08;102214.63;;;15.45;87.82
59757;BME280;45631;51.962;5.974;2022-07-18T03:49:36;102220.53;;;15.48;87.11
59757;BME280;45631;51.962;5.974;2022-07-18T03:52:04;102220.28;;;15.53;87.83
59757;BME280;45631;51.962;5.974;2022-07-18T03:54:34;102215.25;;;15.48;87.56
59757;BME280;45631;51.962;5.974;2022-07-18T03:57:02;102213.00;;;15.42;87.07
59757;BME280;45631;51.962;5.974;2022-07-18T03:59:30;102219.25;;;15.41;87.96
59757;BME280;45631;51.962;5.974;2022-07-18T04:02:00;102217.06;;;15.48;88.06
59757;BME280;45631;51.962;5.974;2022-07-18T04:04:28;102212.03;;;15.43;88.91
59757;BME280;45631;51.962;5.974;2022-07-18T04:06:56;102211.19;;;15.43;88.90
59757;BME280;45631;51.962;5.974;2022-07-18T04:09:26;102217.16;;;15.46;89.24
59757;BME280;45631;51.962;5.974;2022-07-18T04:11:55;102220.75;;;15.45;89.04
59757;BME280;45631;51.962;5.974;2022-07-18T04:14:23;102220.84;;;15.44;88.38
59757;BME280;45631;51.962;5.974;2022-07-18T04:16:51;102215.34;;;15.47;87.50
59757;BME280;45631;51.962;5.974;2022-07-18T04:19:19;102207.41;;;15.47;88.42
59757;BME280;45631;51.962;5.974;2022-07-18T04:21:50;102209.66;;;15.53;87.73
59757;BME280;45631;51.962;5.974;2022-07-18T04:24:18;102209.94;;;15.48;87.54
59757;BME280;45631;51.962;5.974;2022-07-18T04:26:46;102205.66;;;15.60;87.03
59757;BME280;45631;51.962;5.974;2022-07-18T04:29:15;102201.09;;;15.62;87.50
59757;BME280;45631;51.962;5.974;2022-07-18T04:31:43;102199.88;;;15.68;87.75
59757;BME280;45631;51.962;5.974;2022-07-18T04:34:11;102203.56;;;15.65;87.55
59757;BME280;45631;51.962;5.974;2022-07-18T04:36:39;102199.41;;;15.61;88.72
59757;BME280;45631;51.962;5.974;2022-07-18T04:39:08;102201.97;;;15.63;88.85
59757;BME280;45631;51.962;5.974;2022-07-18T04:41:36;102199.41;;;15.61;90.07
59757;BME280;45631;51.962;5.974;2022-07-18T04:44:04;102197.50;;;15.63;89.38
59757;BME280;45631;51.962;5.974;2022-07-18T04:46:34;102192.84;;;15.67;89.23
59757;BME280;45631;51.962;5.974;2022-07-18T04:49:02;102198.06;;;15.68;87.60
59757;BME280;45631;51.962;5.974;2022-07-18T04:51:31;102190.94;;;15.69;91.22
59757;BME280;45631;51.962;5.974;2022-07-18T04:53:59;102190.75;;;15.72;91.57
59757;BME280;45631;51.962;5.974;2022-07-18T04:56:27;102194.03;;;15.76;93.08
59757;BME280;45631;51.962;5.974;2022-07-18T04:58:55;102192.97;;;15.78;90.45
59757;BME280;45631;51.962;5.974;2022-07-18T05:01:23;102189.00;;;15.85;89.12
59757;BME280;45631;51.962;5.974;2022-07-18T05:03:53;102178.09;;;15.90;89.98
59757;BME280;45631;51.962;5.974;2022-07-18T05:06:21;102186.91;;;15.91;87.00
59757;BME280;45631;51.962;5.974;2022-07-18T05:08:49;102183.19;;;15.93;85.02
59757;BME280;45631;51.962;5.974;2022-07-18T05:11:17;102186.59;;;15.95;85.36
59757;BME280;45631;51.962;5.974;2022-07-18T05:13:46;102198.59;;;16.01;83.49
59757;BME280;45631;51.962;5.974;2022-07-18T05:16:14;102196.50;;;16.06;81.80
59757;BME280;45631;51.962;5.974;2022-07-18T05:18:42;102183.66;;;16.13;84.42
59757;BME280;45631;51.962;5.974;2022-07-18T05:21:11;102182.09;;;16.23;84.30
59757;BME280;45631;51.962;5.974;2022-07-18T05:23:40;102187.81;;;16.30;83.11
59757;BME280;45631;51.962;5.974;2022-07-18T05:26:08;102187.19;;;16.39;78.88
59757;BME280;45631;51.962;5.974;2022-07-18T05:28:36;102197.09;;;16.50;83.72
59757;BME280;45631;51.962;5.974;2022-07-18T05:31:04;102198.34;;;16.57;83.37
59757;BME280;45631;51.962;5.974;2022-07-18T05:33:32;102196.84;;;16.66;83.02
59757;BME280;45631;51.962;5.974;2022-07-18T05:36:03;102203.34;;;16.75;83.26
59757;BME280;45631;51.962;5.974;2022-07-18T05:38:33;102202.16;;;16.79;81.63
59757;BME280;45631;51.962;5.974;2022-07-18T05:41:01;102203.53;;;16.84;79.62
59757;BME280;45631;51.962;5.974;2022-07-18T05:43:29;102205.78;;;16.90;79.42
59757;BME280;45631;51.962;5.974;2022-07-18T05:45:57;102204.53;;;16.96;78.55
59757;BME280;45631;51.962;5.974;2022-07-18T05:48:25;102198.75;;;17.02;78.01
59757;BME280;45631;51.962;5.974;2022-07-18T05:50:53;102193.22;;;17.05;78.83
59757;BME280;45631;51.962;5.974;2022-07-18T05:53:21;102198.09;;;17.12;80.10
59757;BME280;45631;51.962;5.974;2022-07-18T05:55:51;102195.03;;;17.18;80.51
59757;BME280;45631;51.962;5.974;2022-07-18T05:58:19;102192.13;;;17.21;79.46
59757;BME280;45631;51.962;5.974;2022-07-18T06:00:47;102198.56;;;17.30;78.57
59757;BME280;45631;51.962;5.974;2022-07-18T06:03:15;102191.75;;;17.38;77.82
59757;BME280;45631;51.962;5.974;2022-07-18T06:05:43;102193.53;;;17.51;74.91
59757;BME280;45631;51.962;5.974;2022-07-18T06:08:11;102186.44;;;17.63;74.65
59757;BME280;45631;51.962;5.974;2022-07-18T06:10:39;102182.13;;;17.73;74.17
59757;BME280;45631;51.962;5.974;2022-07-18T06:13:13;102182.91;;;17.86;73.52
59757;BME280;45631;51.962;5.974;2022-07-18T06:15:42;102175.75;;;18.00;71.40
59757;BME280;45631;51.962;5.974;2022-07-18T06:18:10;102166.47;;;18.17;69.04
59757;BME280;45631;51.962;5.974;2022-07-18T06:20:38;102165.75;;;18.26;70.47
59757;BME280;45631;51.962;5.974;2022-07-18T06:23:06;102162.38;;;18.35;68.73
59757;BME280;45631;51.962;5.974;2022-07-18T06:25:34;102160.22;;;18.52;70.67
59757;BME280;45631;51.962;5.974;2022-07-18T06:28:02;102155.84;;;18.62;70.49
59757;BME280;45631;51.962;5.974;2022-07-18T06:30:32;102150.75;;;18.70;68.14
59757;BME280;45631;51.962;5.974;2022-07-18T06:33:00;102153.91;;;18.87;71.20
59757;BME280;45631;51.962;5.974;2022-07-18T06:35:30;102157.09;;;19.03;70.66
59757;BME280;45631;51.962;5.974;2022-07-18T06:37:58;102159.84;;;19.13;68.86
59757;BME280;45631;51.962;5.974;2022-07-18T06:40:26;102160.03;;;19.33;68.05
59757;BME280;45631;51.962;5.974;2022-07-18T06:42:54;102156.97;;;19.49;68.75
59757;BME280;45631;51.962;5.974;2022-07-18T06:45:22;102154.31;;;19.70;65.84
59757;BME280;45631;51.962;5.974;2022-07-18T06:47:52;102147.34;;;19.90;64.91
59757;BME280;45631;51.962;5.974;2022-07-18T06:50:20;102153.72;;;19.99;64.24
59757;BME280;45631;51.962;5.974;2022-07-18T06:52:48;102148.66;;;20.17;65.18
59757;BME280;45631;51.962;5.974;2022-07-18T06:55:16;102152.38;;;20.35;65.57
59757;BME280;45631;51.962;5.974;2022-07-18T06:57:44;102156.97;;;20.54;61.55
59757;BME280;45631;51.962;5.974;2022-07-18T07:00:14;102155.28;;;20.74;63.73
59757;BME280;45631;51.962;5.974;2022-07-18T07:02:43;102157.88;;;20.96;64.40
59757;BME280;45631;51.962;5.974;2022-07-18T07:05:15;102163.13;;;21.07;59.76
59757;BME280;45631;51.962;5.974;2022-07-18T07:07:44;102156.81;;;21.27;61.70
59757;BME280;45631;51.962;5.974;2022-07-18T07:10:15;102153.19;;;21.58;62.38
59757;BME280;45631;51.962;5.974;2022-07-18T07:12:45;102152.91;;;21.81;58.75
59757;BME280;45631;51.962;5.974;2022-07-18T07:15:17;102154.56;;;22.01;60.21
59757;BME280;45631;51.962;5.974;2022-07-18T07:17:45;102142.41;;;22.17;57.31
59757;BME280;45631;51.962;5.974;2022-07-18T07:20:15;102153.78;;;22.38;57.41
59757;BME280;45631;51.962;5.974;2022-07-18T07:22:46;102146.84;;;22.55;56.60
59757;BME280;45631;51.962;5.974;2022-07-18T07:25:15;102145.28;;;22.81;57.36
59757;BME280;45631;51.962;5.974;2022-07-18T07:27:44;102141.22;;;23.04;55.86
59757;BME280;45631;51.962;5.974;2022-07-18T07:30:14;102149.25;;;23.32;55.58
59757;BME280;45631;51.962;5.974;2022-07-18T07:32:43;102143.78;;;23.60;54.62
59757;BME280;45631;51.962;5.974;2022-07-18T07:35:14;102145.38;;;23.71;50.71
59757;BME280;45631;51.962;5.974;2022-07-18T07:37:44;102146.78;;;23.93;50.16
59757;BME280;45631;51.962;5.974;2022-07-18T07:40:14;102139.03;;;24.16;49.67
59757;BME280;45631;51.962;5.974;2022-07-18T07:42:42;102130.75;;;24.36;49.39
59757;BME280;45631;51.962;5.974;2022-07-18T07:45:11;102129.53;;;24.64;48.81
59757;BME280;45631;51.962;5.974;2022-07-18T07:47:40;102122.03;;;24.76;46.17
59757;BME280;45631;51.962;5.974;2022-07-18T07:50:09;102138.91;;;25.03;47.84
59757;BME280;45631;51.962;5.974;2022-07-18T07:52:39;102140.97;;;25.26;45.14
59757;BME280;45631;51.962;5.974;2022-07-18T07:55:08;102125.88;;;25.41;45.79
59757;BME280;45631;51.962;5.974;2022-07-18T07:57:36;102131.59;;;25.38;44.51
59757;BME280;45631;51.962;5.974;2022-07-18T08:00:06;102130.09;;;25.60;43.50
59757;BME280;45631;51.962;5.974;2022-07-18T08:02:35;102130.75;;;25.87;46.15
59757;BME280;45631;51.962;5.974;2022-07-18T08:05:04;102130.41;;;26.07;43.39
59757;BME280;45631;51.962;5.974;2022-07-18T08:07:32;102130.38;;;26.23;43.82
59757;BME280;45631;51.962;5.974;2022-07-18T08:10:02;102132.50;;;26.44;43.70
59757;BME280;45631;51.962;5.974;2022-07-18T08:12:30;102130.88;;;26.66;43.27
59757;BME280;45631;51.962;5.974;2022-07-18T08:14:58;102130.53;;;26.78;41.66
59757;BME280;45631;51.962;5.974;2022-07-18T08:17:26;102134.78;;;26.95;41.28
59757;BME280;45631;51.962;5.974;2022-07-18T08:19:54;102132.09;;;27.19;41.65
59757;BME280;45631;51.962;5.974;2022-07-18T08:22:23;102132.63;;;27.45;41.43
59757;BME280;45631;51.962;5.974;2022-07-18T08:24:51;102128.97;;;27.61;39.41
59757;BME280;45631;51.962;5.974;2022-07-18T08:27:21;102125.44;;;27.76;39.56
59757;BME280;45631;51.962;5.974;2022-07-18T08:29:49;102129.53;;;27.87;38.57
59757;BME280;45631;51.962;5.974;2022-07-18T08:32:34;102121.50;;;28.02;36.93
59757;BME280;45631;51.962;5.974;2022-07-18T08:35:03;102119.06;;;28.22;37.76
59757;BME280;45631;51.962;5.974;2022-07-18T08:37:32;102113.38;;;28.46;36.62
59757;BME280;45631;51.962;5.974;2022-07-18T08:40:00;102108.88;;;28.54;38.18
59757;BME280;45631;51.962;5.974;2022-07-18T08:42:32;102112.31;;;28.77;39.50
59757;BME280;45631;51.962;5.974;2022-07-18T08:45:01;102113.44;;;29.05;37.08
59757;BME280;45631;51.962;5.974;2022-07-18T08:47:30;102121.91;;;29.16;35.71
59757;BME280;45631;51.962;5.974;2022-07-18T08:49:59;102109.19;;;29.17;35.15
59757;BME280;45631;51.962;5.974;2022-07-18T08:52:29;102102.13;;;29.38;36.01
59757;BME280;45631;51.962;5.974;2022-07-18T08:55:17;102108.31;;;29.60;36.34
59757;BME280;45631;51.962;5.974;2022-07-18T08:57:54;102108.28;;;29.81;34.61
59757;BME280;45631;51.962;5.974;2022-07-18T09:00:22;102099.66;;;29.99;33.60
59757;BME280;45631;51.962;5.974;2022-07-18T09:02:58;102099.50;;;30.08;33.64
59757;BME280;45631;51.962;5.974;2022-07-18T09:05:27;102107.22;;;30.04;33.58
59757;BME280;45631;51.962;5.974;2022-07-18T09:08:10;102104.06;;;30.42;33.92
59757;BME280;45631;51.962;5.974;2022-07-18T09:10:57;102107.91;;;30.55;33.39
59757;BME280;45631;51.962;5.974;2022-07-18T09:13:36;102111.50;;;30.75;32.83
59757;BME280;45631;51.962;5.974;2022-07-18T09:16:08;102107.19;;;30.94;32.37
59757;BME280;45631;51.962;5.974;2022-07-18T09:18:37;102104.28;;;31.02;31.32
59757;BME280;45631;51.962;5.974;2022-07-18T09:21:07;102106.81;;;31.04;30.18
59757;BME280;45631;51.962;5.974;2022-07-18T09:23:38;102100.28;;;30.92;30.03
59757;BME280;45631;51.962;5.974;2022-07-18T09:26:07;102109.09;;;31.14;29.89
59757;BME280;45631;51.962;5.974;2022-07-18T09:28:47;102113.09;;;31.31;30.17
59757;BME280;45631;51.962;5.974;2022-07-18T09:31:35;102108.28;;;31.27;28.45
59757;BME280;45631;51.962;5.974;2022-07-18T09:34:04;102115.19;;;31.49;29.57
59757;BME280;45631;51.962;5.974;2022-07-18T09:36:33;102113.09;;;31.45;29.07
59757;BME280;45631;51.962;5.974;2022-07-18T09:39:17;102100.94;;;31.94;29.18
59757;BME280;45631;51.962;5.974;2022-07-18T09:41:46;102095.81;;;32.31;26.72
59757;BME280;45631;51.962;5.974;2022-07-18T09:44:16;102092.34;;;32.63;26.57
59757;BME280;45631;51.962;5.974;2022-07-18T09:46:58;102095.63;;;32.78;26.16
59757;BME280;45631;51.962;5.974;2022-07-18T09:49:29;102093.16;;;33.02;24.85
59757;BME280;45631;51.962;5.974;2022-07-18T09:52:05;102089.78;;;33.07;25.60
59757;BME280;45631;51.962;5.974;2022-07-18T09:54:38;102082.34;;;33.20;24.91
59757;BME280;45631;51.962;5.974;2022-07-18T09:57:06;102086.84;;;33.59;24.39
59757;BME280;45631;51.962;5.974;2022-07-18T09:59:36;102088.34;;;33.80;24.20
59757;BME280;45631;51.962;5.974;2022-07-18T10:02:11;102079.47;;;33.84;24.71
59757;BME280;45631;51.962;5.974;2022-07-18T10:04:39;102084.47;;;33.88;24.55
59757;BME280;45631;51.962;5.974;2022-07-18T10:07:08;102091.84;;;33.62;24.11
59757;BME280;45631;51.962;5.974;2022-07-18T10:09:38;102090.38;;;33.41;24.97
59757;BME280;45631;51.962;5.974;2022-07-18T10:12:07;102079.66;;;33.39;23.76
59757;BME280;45631;51.962;5.974;2022-07-18T10:14:37;102080.72;;;33.13;24.24
59757;BME280;45631;51.962;5.974;2022-07-18T10:17:06;102079.56;;;32.95;25.17
59757;BME280;45631;51.962;5.974;2022-07-18T10:19:34;102078.88;;;32.68;26.15
59757;BME280;45631;51.962;5.974;2022-07-18T10:22:03;102079.56;;;32.63;26.39
59757;BME280;45631;51.962;5.974;2022-07-18T10:24:31;102083.34;;;32.56;25.84
59757;BME280;45631;51.962;5.974;2022-07-18T10:27:14;102079.28;;;32.78;26.74
59757;BME280;45631;51.962;5.974;2022-07-18T10:30:17;102081.56;;;33.13;26.21
59757;BME280;45631;51.962;5.974;2022-07-18T10:32:56;102079.03;;;32.86;23.83
59757;BME280;45631;51.962;5.974;2022-07-18T10:35:59;102082.34;;;33.20;25.39
59757;BME280;45631;51.962;5.974;2022-07-18T10:38:37;102086.03;;;33.33;25.62
59757;BME280;45631;51.962;5.974;2022-07-18T10:41:08;102074.63;;;33.86;25.49
59757;BME280;45631;51.962;5.974;2022-07-18T10:43:44;102070.69;;;34.01;24.86
59757;BME280;45631;51.962;5.974;2022-07-18T10:46:13;102073.09;;;33.91;23.79
59757;BME280;45631;51.962;5.974;2022-07-18T10:48:53;102072.50;;;33.89;23.47
59757;BME280;45631;51.962;5.974;2022-07-18T10:51:30;102067.41;;;33.92;24.98
59757;BME280;45631;51.962;5.974;2022-07-18T10:54:07;102071.00;;;33.93;23.82
59757;BME280;45631;51.962;5.974;2022-07-18T10:57:06;102070.81;;;34.25;24.14
59757;BME280;45631;51.962;5.974;2022-07-18T10:59:38;102065.84;;;34.52;24.63
59757;BME280;45631;51.962;5.974;2022-07-18T11:02:08;102064.50;;;34.73;23.56
59757;BME280;45631;51.962;5.974;2022-07-18T11:04:39;102068.53;;;34.70;23.57
59757;BME280;45631;51.962;5.974;2022-07-18T11:07:10;102067.31;;;34.97;23.30
59757;BME280;45631;51.962;5.974;2022-07-18T11:09:42;102067.59;;;35.07;23.05
59757;BME280;45631;51.962;5.974;2022-07-18T11:12:30;102063.28;;;34.99;22.15
59757;BME280;45631;51.962;5.974;2022-07-18T11:15:11;102065.50;;;35.33;22.65
59757;BME280;45631;51.962;5.974;2022-07-18T11:18:01;102067.47;;;35.73;22.31
59757;BME280;45631;51.962;5.974;2022-07-18T11:20:39;102068.09;;;35.75;20.94
59757;BME280;45631;51.962;5.974;2022-07-18T11:23:19;102060.84;;;35.57;20.79
59757;BME280;45631;51.962;5.974;2022-07-18T11:25:49;102057.22;;;35.80;22.76
59757;BME280;45631;51.962;5.974;2022-07-18T11:28:24;102051.03;;;35.97;21.24
59757;BME280;45631;51.962;5.974;2022-07-18T11:31:04;102054.53;;;35.68;20.66
59757;BME280;45631;51.962;5.974;2022-07-18T11:33:38;102034.28;;;35.81;20.87
59757;BME280;45631;51.962;5.974;2022-07-18T11:36:09;102041.56;;;35.87;21.49
59757;BME280;45631;51.962;5.974;2022-07-18T11:38:39;102037.78;;;36.17;22.20
59757;BME280;45631;51.962;5.974;2022-07-18T11:41:14;102034.06;;;36.52;22.33
59757;BME280;45631;51.962;5.974;2022-07-18T11:43:43;102028.22;;;36.78;21.04
59757;BME280;45631;51.962;5.974;2022-07-18T11:46:14;102037.13;;;37.02;21.24
59757;BME280;45631;51.962;5.974;2022-07-18T11:48:46;102028.31;;;37.34;20.64
59757;BME280;45631;51.962;5.974;2022-07-18T11:51:18;102022.56;;;37.18;19.84
59757;BME280;45631;51.962;5.974;2022-07-18T11:53:48;102026.63;;;36.99;20.27
59757;BME280;45631;51.962;5.974;2022-07-18T11:56:20;102025.47;;;37.29;19.44
59757;BME280;45631;51.962;5.974;2022-07-18T11:58:49;102025.00;;;37.54;20.90
59757;BME280;45631;51.962;5.974;2022-07-18T12:01:18;102019.84;;;37.58;20.16
59757;BME280;45631;51.962;5.974;2022-07-18T12:03:49;102016.41;;;37.67;19.93
59757;BME280;45631;51.962;5.974;2022-07-18T12:06:19;102012.09;;;37.94;20.73
59757;BME280;45631;51.962;5.974;2022-07-18T12:08:48;102011.41;;;38.31;19.35
59757;BME280;45631;51.962;5.974;2022-07-18T12:11:18;102008.56;;;38.48;19.26
59757;BME280;45631;51.962;5.974;2022-07-18T12:13:54;102005.53;;;38.49;19.81
59757;BME280;45631;51.962;5.974;2022-07-18T12:16:25;101995.38;;;38.22;18.74
59757;BME280;45631;51.962;5.974;2022-07-18T12:18:57;102004.91;;;38.42;18.99
59757;BME280;45631;51.962;5.974;2022-07-18T12:21:39;101998.50;;;38.31;19.05
59757;BME280;45631;51.962;5.974;2022-07-18T12:24:24;102001.69;;;38.50;19.33
59757;BME280;45631;51.962;5.974;2022-07-18T12:27:15;102004.38;;;38.72;19.53
59757;BME280;45631;51.962;5.974;2022-07-18T12:32:45;101990.84;;;39.03;17.92
59757;BME280;45631;51.962;5.974;2022-07-18T12:35:18;101995.56;;;39.13;17.49
59757;BME280;45631;51.962;5.974;2022-07-18T12:37:54;101989.69;;;39.37;17.74
59757;BME280;45631;51.962;5.974;2022-07-18T12:40:24;101990.31;;;39.49;17.98
59757;BME280;45631;51.962;5.974;2022-07-18T12:43:03;101996.75;;;39.22;16.86
59757;BME280;45631;51.962;5.974;2022-07-18T12:45:33;101998.84;;;39.58;16.81
59757;BME280;45631;51.962;5.974;2022-07-18T12:48:02;101997.84;;;39.75;17.47
59757;BME280;45631;51.962;5.974;2022-07-18T12:50:32;101986.53;;;39.66;16.39
59757;BME280;45631;51.962;5.974;2022-07-18T12:53:00;101995.38;;;39.78;16.98
59757;BME280;45631;51.962;5.974;2022-07-18T12:55:29;101991.00;;;39.87;16.00
59757;BME280;45631;51.962;5.974;2022-07-18T12:57:59;101985.47;;;39.77;15.77
59757;BME280;45631;51.962;5.974;2022-07-18T13:00:27;101988.22;;;39.72;16.29
59757;BME280;45631;51.962;5.974;2022-07-18T13:02:57;101978.16;;;39.40;15.38
59757;BME280;45631;51.962;5.974;2022-07-18T13:05:27;101978.47;;;39.49;16.19
59757;BME280;45631;51.962;5.974;2022-07-18T13:07:57;101977.38;;;39.50;16.16
59757;BME280;45631;51.962;5.974;2022-07-18T13:10:25;101974.34;;;39.51;17.26